sensor_id;sensor_type;location;lat;lon;timestamp;temperature;humidity
22167;DHT22;11249;52.468;13.776;2023-04-28T00:01:40;2.70;99.90
22167;DHT22;11249;52.468;13.776;2023-04-28T00:04:07;2.70;99.90
22167;DHT22;11249;52.468;13.776;2023-04-28T00:06:34;2.60;99.90
22167;DHT22;11249;52.468;13.776;2023-04-28T00:09:01;2.60;99.90
22167;DHT22;11249;52.468;13.776;2023-04-28T00:11:28;2.60;99.90
22167;DHT22;11249;52.468;13.776;2023-04-28T00:13:55;2.60;99.90
22167;DHT22;11249;52.468;13.776;2023-04-28T00:16:22;2.50;99.90
22167;DHT22;11249;52.468;13.776;2023-04-28T00:18:49;2.50;99.90
22167;DHT22;11249;52.468;13.776;2023-04-28T00:21:16;2.50;99.90
22167;DHT22;11249;52.468;13.776;2023-04-28T00:23:43;2.40;99.90
22167;DHT22;11249;52.468;13.776;2023-04-28T00:26:10;2.40;99.90
22167;DHT22;11249;52.468;13.776;2023-04-28T00:28:37;2.30;99.90
22167;DHT22;11249;52.468;13.776;2023-04-28T00:31:11;2.30;99.90
22167;DHT22;11249;52.468;13.776;2023-04-28T00:33:39;2.30;99.90
22167;DHT22;11249;52.468;13.776;2023-04-28T00:36:07;2.30;99.90
22167;DHT22;11249;52.468;13.776;2023-04-28T00:38:34;2.30;99.90
22167;DHT22;11249;52.468;13.776;2023-04-28T00:41:01;2.20;99.90
22167;DHT22;11249;52.468;13.776;2023-04-28T00:43:28;2.20;99.90
22167;DHT22;11249;52.468;13.776;2023-04-28T00:45:54;2.20;99.90
22167;DHT22;11249;52.468;13.776;2023-04-28T00:48:22;2.20;99.90
22167;DHT22;11249;52.468;13.776;2023-04-28T00:50:50;2.20;99.90
22167;DHT22;11249;52.468;13.776;2023-04-28T00:53:17;2.20;99.90
22167;DHT22;11249;52.468;13.776;2023-04-28T00:55:44;2.20;99.90
22167;DHT22;11249;52.468;13.776;2023-04-28T00:58:12;2.10;99.90
22167;DHT22;11249;52.468;13.776;2023-04-28T01:00:39;2.00;99.90
22167;DHT22;11249;52.468;13.776;2023-04-28T01:03:06;2.10;99.90
22167;DHT22;11249;52.468;13.776;2023-04-28T01:05:33;2.00;99.90
22167;DHT22;11249;52.468;13.776;2023-04-28T01:08:01;2.00;99.90
22167;DHT22;11249;52.468;13.776;2023-04-28T01:10:28;2.00;99.90
22167;DHT22;11249;52.468;13.776;2023-04-28T01:12:55;1.90;99.90
22167;DHT22;11249;52.468;13.776;2023-04-28T01:15:21;1.90;99.90
22167;DHT22;11249;52.468;13.776;2023-04-28T01:17:48;1.90;99.90
22167;DHT22;11249;52.468;13.776;2023-04-28T01:20:15;1.90;99.90
22167;DHT22;11249;52.468;13.776;2023-04-28T01:22:42;1.90;99.90
22167;DHT22;11249;52.468;13.776;2023-04-28T01:25:08;1.90;99.90
22167;DHT22;11249;52.468;13.776;2023-04-28T01:27:35;1.80;99.90
22167;DHT22;11249;52.468;13.776;2023-04-28T01:30:02;1.80;99.90
22167;DHT22;11249;52.468;13.776;2023-04-28T01:32:29;1.80;99.90
22167;DHT22;11249;52.468;13.776;2023-04-28T01:34:55;1.80;99.90
22167;DHT22;11249;52.468;13.776;2023-04-28T01:37:22;1.80;99.90
22167;DHT22;11249;52.468;13.776;2023-04-28T01:39:49;1.80;99.90
22167;DHT22;11249;52.468;13.776;2023-04-28T01:42:16;1.80;99.90
22167;DHT22;11249;52.468;13.776;2023-04-28T01:44:43;1.70;99.90
22167;DHT22;11249;52.468;13.776;2023-04-28T01:47:09;1.80;99.90
22167;DHT22;11249;52.468;13.776;2023-04-28T01:49:36;1.80;99.90
22167;DHT22;11249;52.468;13.776;2023-04-28T01:52:03;1.70;99.90
22167;DHT22;11249;52.468;13.776;2023-04-28T01:54:30;1.80;99.90
22167;DHT22;11249;52.468;13.776;2023-04-28T01:56:56;1.80;99.90
22167;DHT22;11249;52.468;13.776;2023-04-28T01:59:23;1.80;99.90
22167;DHT22;11249;52.468;13.776;2023-04-28T02:01:50;1.80;99.90
22167;DHT22;11249;52.468;13.776;2023-04-28T02:04:17;1.80;99.90
22167;DHT22;11249;52.468;13.776;2023-04-28T02:06:44;1.80;99.90
22167;DHT22;11249;52.468;13.776;2023-04-28T02:09:11;1.70;99.90
22167;DHT22;11249;52.468;13.776;2023-04-28T02:11:37;1.70;99.90
22167;DHT22;11249;52.468;13.776;2023-04-28T02:14:04;1.80;99.90
22167;DHT22;11249;52.468;13.776;2023-04-28T02:16:31;1.80;99.90
22167;DHT22;11249;52.468;13.776;2023-04-28T02:18:59;1.70;99.90
22167;DHT22;11249;52.468;13.776;2023-04-28T02:21:26;1.70;99.90
22167;DHT22;11249;52.468;13.776;2023-04-28T02:23:53;1.80;99.90
22167;DHT22;11249;52.468;13.776;2023-04-28T02:26:20;1.80;99.90
22167;DHT22;11249;52.468;13.776;2023-04-28T02:28:46;1.80;99.90
22167;DHT22;11249;52.468;13.776;2023-04-28T02:31:14;1.80;99.90
22167;DHT22;11249;52.468;13.776;2023-04-28T02:33:41;1.70;99.90
22167;DHT22;11249;52.468;13.776;2023-04-28T02:36:08;1.70;99.90
22167;DHT22;11249;52.468;13.776;2023-04-28T02:38:35;1.70;99.90
22167;DHT22;11249;52.468;13.776;2023-04-28T02:41:04;1.70;99.90
22167;DHT22;11249;52.468;13.776;2023-04-28T02:43:31;1.70;99.90
22167;DHT22;11249;52.468;13.776;2023-04-28T02:45:58;1.70;99.90
22167;DHT22;11249;52.468;13.776;2023-04-28T02:48:25;1.70;99.90
22167;DHT22;11249;52.468;13.776;2023-04-28T02:50:52;1.70;99.90
22167;DHT22;11249;52.468;13.776;2023-04-28T02:53:20;1.70;99.90
22167;DHT22;11249;52.468;13.776;2023-04-28T02:55:47;1.70;99.90
22167;DHT22;11249;52.468;13.776;2023-04-28T02:58:14;1.70;99.90
22167;DHT22;11249;52.468;13.776;2023-04-28T03:00:41;1.60;99.90
22167;DHT22;11249;52.468;13.776;2023-04-28T03:03:08;1.60;99.90
22167;DHT22;11249;52.468;13.776;2023-04-28T03:05:35;1.60;99.90
22167;DHT22;11249;52.468;13.776;2023-04-28T03:08:01;1.60;99.90
22167;DHT22;11249;52.468;13.776;2023-04-28T03:10:28;1.60;99.90
22167;DHT22;11249;52.468;13.776;2023-04-28T03:12:55;1.70;99.90
22167;DHT22;11249;52.468;13.776;2023-04-28T03:15:22;1.70;99.90
22167;DHT22;11249;52.468;13.776;2023-04-28T03:17:48;1.60;99.90
22167;DHT22;11249;52.468;13.776;2023-04-28T03:20:15;1.60;99.90
22167;DHT22;11249;52.468;13.776;2023-04-28T03:22:42;1.60;99.90
22167;DHT22;11249;52.468;13.776;2023-04-28T03:25:09;1.70;99.90
22167;DHT22;11249;52.468;13.776;2023-04-28T03:27:36;1.70;99.90
22167;DHT22;11249;52.468;13.776;2023-04-28T03:30:03;1.70;99.90
22167;DHT22;11249;52.468;13.776;2023-04-28T03:32:29;1.70;99.90
22167;DHT22;11249;52.468;13.776;2023-04-28T03:34:56;1.70;99.90
22167;DHT22;11249;52.468;13.776;2023-04-28T03:37:23;1.70;99.90
22167;DHT22;11249;52.468;13.776;2023-04-28T03:39:49;1.70;99.90
22167;DHT22;11249;52.468;13.776;2023-04-28T03:42:16;1.70;99.90
22167;DHT22;11249;52.468;13.776;2023-04-28T03:44:43;1.70;99.90
22167;DHT22;11249;52.468;13.776;2023-04-28T03:47:10;1.80;99.90
22167;DHT22;11249;52.468;13.776;2023-04-28T03:49:37;1.80;99.90
22167;DHT22;11249;52.468;13.776;2023-04-28T03:52:04;1.80;99.90
22167;DHT22;11249;52.468;13.776;2023-04-28T03:54:30;1.90;99.90
22167;DHT22;11249;52.468;13.776;2023-04-28T03:56:57;1.90;99.90
22167;DHT22;11249;52.468;13.776;2023-04-28T03:59:25;2.00;99.90
22167;DHT22;11249;52.468;13.776;2023-04-28T04:01:52;2.00;99.90
22167;DHT22;11249;52.468;13.776;2023-04-28T04:04:19;1.90;99.90
22167;DHT22;11249;52.468;13.776;2023-04-28T04:06:46;1.90;99.90
22167;DHT22;11249;52.468;13.776;2023-04-28T04:09:13;1.90;99.90
22167;DHT22;11249;52.468;13.776;2023-04-28T04:11:40;1.90;99.90
22167;DHT22;11249;52.468;13.776;2023-04-28T04:14:06;1.90;99.90
22167;DHT22;11249;52.468;13.776;2023-04-28T04:16:34;2.00;99.90
22167;DHT22;11249;52.468;13.776;2023-04-28T04:19:01;2.00;99.90
22167;DHT22;11249;52.468;13.776;2023-04-28T04:21:28;2.10;99.90
22167;DHT22;11249;52.468;13.776;2023-04-28T04:23:55;2.10;99.90
22167;DHT22;11249;52.468;13.776;2023-04-28T04:26:22;2.20;99.90
22167;DHT22;11249;52.468;13.776;2023-04-28T04:28:48;2.20;99.90
22167;DHT22;11249;52.468;13.776;2023-04-28T04:31:15;2.30;99.90
22167;DHT22;11249;52.468;13.776;2023-04-28T04:33:42;2.30;99.90
22167;DHT22;11249;52.468;13.776;2023-04-28T04:36:09;2.30;99.90
22167;DHT22;11249;52.468;13.776;2023-04-28T04:38:36;2.40;99.90
22167;DHT22;11249;52.468;13.776;2023-04-28T04:41:02;2.40;99.90
22167;DHT22;11249;52.468;13.776;2023-04-28T04:43:29;2.40;99.90
22167;DHT22;11249;52.468;13.776;2023-04-28T04:45:56;2.50;99.90
22167;DHT22;11249;52.468;13.776;2023-04-28T04:48:22;2.50;99.90
22167;DHT22;11249;52.468;13.776;2023-04-28T04:50:49;2.60;99.90
22167;DHT22;11249;52.468;13.776;2023-04-28T04:53:16;2.70;99.90
22167;DHT22;11249;52.468;13.776;2023-04-28T04:55:42;2.70;99.90
22167;DHT22;11249;52.468;13.776;2023-04-28T04:58:09;2.80;99.90
22167;DHT22;11249;52.468;13.776;2023-04-28T05:00:36;2.90;99.90
22167;DHT22;11249;52.468;13.776;2023-04-28T05:03:04;2.90;99.90
22167;DHT22;11249;52.468;13.776;2023-04-28T05:05:31;3.00;99.90
22167;DHT22;11249;52.468;13.776;2023-04-28T05:07:58;3.00;99.90
22167;DHT22;11249;52.468;13.776;2023-04-28T05:10:25;3.10;99.90
22167;DHT22;11249;52.468;13.776;2023-04-28T05:12:52;3.10;99.90
22167;DHT22;11249;52.468;13.776;2023-04-28T05:15:19;3.20;99.90
22167;DHT22;11249;52.468;13.776;2023-04-28T05:17:46;3.30;99.90
22167;DHT22;11249;52.468;13.776;2023-04-28T05:20:13;3.30;99.90
22167;DHT22;11249;52.468;13.776;2023-04-28T05:22:40;3.30;99.90
22167;DHT22;11249;52.468;13.776;2023-04-28T05:25:07;3.40;99.90
22167;DHT22;11249;52.468;13.776;2023-04-28T05:27:34;3.40;99.90
22167;DHT22;11249;52.468;13.776;2023-04-28T05:30:06;3.40;99.90
22167;DHT22;11249;52.468;13.776;2023-04-28T05:32:34;3.50;99.90
22167;DHT22;11249;52.468;13.776;2023-04-28T05:35:01;3.60;99.90
22167;DHT22;11249;52.468;13.776;2023-04-28T05:37:28;3.70;99.90
22167;DHT22;11249;52.468;13.776;2023-04-28T05:39:55;3.90;99.90
22167;DHT22;11249;52.468;13.776;2023-04-28T05:42:22;4.00;99.90
22167;DHT22;11249;52.468;13.776;2023-04-28T05:44:48;4.20;99.90
22167;DHT22;11249;52.468;13.776;2023-04-28T05:47:15;4.40;99.90
22167;DHT22;11249;52.468;13.776;2023-04-28T05:49:42;4.50;99.90
22167;DHT22;11249;52.468;13.776;2023-04-28T05:52:08;4.70;99.90
22167;DHT22;11249;52.468;13.776;2023-04-28T05:54:35;4.80;99.90
22167;DHT22;11249;52.468;13.776;2023-04-28T05:57:02;5.00;99.90
22167;DHT22;11249;52.468;13.776;2023-04-28T05:59:29;5.20;99.90
22167;DHT22;11249;52.468;13.776;2023-04-28T06:01:57;5.40;99.90
22167;DHT22;11249;52.468;13.776;2023-04-28T06:04:23;5.50;99.90
22167;DHT22;11249;52.468;13.776;2023-04-28T06:06:52;5.60;99.90
22167;DHT22;11249;52.468;13.776;2023-04-28T06:09:18;5.60;99.90
22167;DHT22;11249;52.468;13.776;2023-04-28T06:11:45;5.70;99.90
22167;DHT22;11249;52.468;13.776;2023-04-28T06:14:12;5.90;99.90
22167;DHT22;11249;52.468;13.776;2023-04-28T06:16:39;6.10;99.90
22167;DHT22;11249;52.468;13.776;2023-04-28T06:19:06;6.20;99.90
22167;DHT22;11249;52.468;13.776;2023-04-28T06:21:32;6.40;99.90
22167;DHT22;11249;52.468;13.776;2023-04-28T06:23:59;6.50;99.90
22167;DHT22;11249;52.468;13.776;2023-04-28T06:26:28;6.80;99.90
22167;DHT22;11249;52.468;13.776;2023-04-28T06:28:54;6.90;99.90
22167;DHT22;11249;52.468;13.776;2023-04-28T06:31:21;7.10;99.90
22167;DHT22;11249;52.468;13.776;2023-04-28T06:33:48;7.20;99.90
22167;DHT22;11249;52.468;13.776;2023-04-28T06:36:14;7.30;99.90
22167;DHT22;11249;52.468;13.776;2023-04-28T06:38:44;7.40;99.90
22167;DHT22;11249;52.468;13.776;2023-04-28T06:41:11;7.70;99.90
22167;DHT22;11249;52.468;13.776;2023-04-28T06:43:38;7.80;99.90
22167;DHT22;11249;52.468;13.776;2023-04-28T06:46:05;7.90;99.90
22167;DHT22;11249;52.468;13.776;2023-04-28T06:48:32;8.00;99.90
22167;DHT22;11249;52.468;13.776;2023-04-28T06:50:59;8.20;99.90
22167;DHT22;11249;52.468;13.776;2023-04-28T06:53:25;8.30;99.90
22167;DHT22;11249;52.468;13.776;2023-04-28T06:55:52;8.50;99.90
22167;DHT22;11249;52.468;13.776;2023-04-28T06:58:19;8.60;99.90
22167;DHT22;11249;52.468;13.776;2023-04-28T07:00:46;8.80;99.90
22167;DHT22;11249;52.468;13.776;2023-04-28T07:03:13;8.90;99.90
22167;DHT22;11249;52.468;13.776;2023-04-28T07:05:40;8.90;99.90
22167;DHT22;11249;52.468;13.776;2023-04-28T07:08:06;9.10;99.90
22167;DHT22;11249;52.468;13.776;2023-04-28T07:10:33;9.20;99.90
22167;DHT22;11249;52.468;13.776;2023-04-28T07:13:00;9.30;99.90
22167;DHT22;11249;52.468;13.776;2023-04-28T07:15:27;9.30;99.90
22167;DHT22;11249;52.468;13.776;2023-04-28T07:17:54;9.40;99.90
22167;DHT22;11249;52.468;13.776;2023-04-28T07:20:21;9.60;99.90
22167;DHT22;11249;52.468;13.776;2023-04-28T07:22:48;9.60;99.90
22167;DHT22;11249;52.468;13.776;2023-04-28T07:25:14;9.70;99.90
22167;DHT22;11249;52.468;13.776;2023-04-28T07:27:41;9.80;99.90
22167;DHT22;11249;52.468;13.776;2023-04-28T07:30:08;9.90;99.90
22167;DHT22;11249;52.468;13.776;2023-04-28T07:32:52;10.10;99.90
22167;DHT22;11249;52.468;13.776;2023-04-28T07:35:19;10.20;99.90
22167;DHT22;11249;52.468;13.776;2023-04-28T07:37:45;10.30;99.90
22167;DHT22;11249;52.468;13.776;2023-04-28T07:40:12;10.30;99.90
22167;DHT22;11249;52.468;13.776;2023-04-28T07:42:39;10.40;99.90
22167;DHT22;11249;52.468;13.776;2023-04-28T07:45:06;10.40;99.90
22167;DHT22;11249;52.468;13.776;2023-04-28T07:47:33;10.50;99.90
22167;DHT22;11249;52.468;13.776;2023-04-28T07:50:01;10.60;99.90
22167;DHT22;11249;52.468;13.776;2023-04-28T07:52:32;10.70;99.90
22167;DHT22;11249;52.468;13.776;2023-04-28T07:54:59;10.70;99.90
22167;DHT22;11249;52.468;13.776;2023-04-28T07:57:27;10.80;99.90
22167;DHT22;11249;52.468;13.776;2023-04-28T07:59:57;10.80;99.90
22167;DHT22;11249;52.468;13.776;2023-04-28T08:02:23;11.00;99.90
22167;DHT22;11249;52.468;13.776;2023-04-28T08:04:51;11.10;99.90
22167;DHT22;11249;52.468;13.776;2023-04-28T08:07:18;11.10;99.90
22167;DHT22;11249;52.468;13.776;2023-04-28T08:09:45;11.10;99.90
22167;DHT22;11249;52.468;13.776;2023-04-28T08:12:14;11.20;99.90
22167;DHT22;11249;52.468;13.776;2023-04-28T08:14:41;11.30;99.90
22167;DHT22;11249;52.468;13.776;2023-04-28T08:17:08;11.40;99.90
22167;DHT22;11249;52.468;13.776;2023-04-28T08:19:35;11.40;99.90
22167;DHT22;11249;52.468;13.776;2023-04-28T08:22:02;11.50;99.90
22167;DHT22;11249;52.468;13.776;2023-04-28T08:24:33;11.70;99.90
22167;DHT22;11249;52.468;13.776;2023-04-28T08:27:00;11.80;99.90
22167;DHT22;11249;52.468;13.776;2023-04-28T08:29:30;11.90;99.90
22167;DHT22;11249;52.468;13.776;2023-04-28T08:31:57;12.00;99.90
22167;DHT22;11249;52.468;13.776;2023-04-28T08:34:24;12.10;99.90
22167;DHT22;11249;52.468;13.776;2023-04-28T08:36:51;12.10;99.90
22167;DHT22;11249;52.468;13.776;2023-04-28T08:39:19;12.20;99.90
22167;DHT22;11249;52.468;13.776;2023-04-28T08:41:49;12.30;99.90
22167;DHT22;11249;52.468;13.776;2023-04-28T08:44:16;12.50;99.90
22167;DHT22;11249;52.468;13.776;2023-04-28T08:46:45;12.60;99.90
22167;DHT22;11249;52.468;13.776;2023-04-28T08:49:17;12.60;99.90
22167;DHT22;11249;52.468;13.776;2023-04-28T08:51:48;12.70;99.90
22167;DHT22;11249;52.468;13.776;2023-04-28T08:54:15;12.90;99.90
22167;DHT22;11249;52.468;13.776;2023-04-28T08:56:52;13.00;99.90
22167;DHT22;11249;52.468;13.776;2023-04-28T08:59:19;13.10;99.90
22167;DHT22;11249;52.468;13.776;2023-04-28T09:01:50;13.10;99.90
22167;DHT22;11249;52.468;13.776;2023-04-28T09:04:17;13.20;99.90
22167;DHT22;11249;52.468;13.776;2023-04-28T09:06:45;13.30;99.90
22167;DHT22;11249;52.468;13.776;2023-04-28T09:09:25;13.30;99.90
22167;DHT22;11249;52.468;13.776;2023-04-28T09:11:57;13.40;99.90
22167;DHT22;11249;52.468;13.776;2023-04-28T09:14:26;13.50;99.90
22167;DHT22;11249;52.468;13.776;2023-04-28T09:16:53;13.60;99.90
22167;DHT22;11249;52.468;13.776;2023-04-28T09:19:21;13.70;99.90
22167;DHT22;11249;52.468;13.776;2023-04-28T09:21:51;13.80;99.90
22167;DHT22;11249;52.468;13.776;2023-04-28T09:24:35;13.80;99.90
22167;DHT22;11249;52.468;13.776;2023-04-28T09:27:04;13.90;99.90
22167;DHT22;11249;52.468;13.776;2023-04-28T09:29:33;14.10;99.90
22167;DHT22;11249;52.468;13.776;2023-04-28T09:32:20;14.10;99.90
22167;DHT22;11249;52.468;13.776;2023-04-28T09:34:53;14.20;99.90
22167;DHT22;11249;52.468;13.776;2023-04-28T09:37:24;14.20;99.90
22167;DHT22;11249;52.468;13.776;2023-04-28T09:39:53;14.40;99.90
22167;DHT22;11249;52.468;13.776;2023-04-28T09:42:29;14.50;99.90
22167;DHT22;11249;52.468;13.776;2023-04-28T09:44:57;14.50;99.90
22167;DHT22;11249;52.468;13.776;2023-04-28T09:47:24;14.60;99.90
22167;DHT22;11249;52.468;13.776;2023-04-28T09:49:55;14.70;99.90
22167;DHT22;11249;52.468;13.776;2023-04-28T09:52:23;14.60;99.90
22167;DHT22;11249;52.468;13.776;2023-04-28T09:54:51;14.70;99.90
22167;DHT22;11249;52.468;13.776;2023-04-28T09:57:18;14.80;99.90
22167;DHT22;11249;52.468;13.776;2023-04-28T09:59:47;14.90;99.90
22167;DHT22;11249;52.468;13.776;2023-04-28T10:02:18;15.00;99.90
22167;DHT22;11249;52.468;13.776;2023-04-28T10:05:06;15.10;99.90
22167;DHT22;11249;52.468;13.776;2023-04-28T10:07:36;15.20;99.90
22167;DHT22;11249;52.468;13.776;2023-04-28T10:10:03;15.40;99.90
22167;DHT22;11249;52.468;13.776;2023-04-28T10:12:31;15.50;99.90
22167;DHT22;11249;52.468;13.776;2023-04-28T10:14:59;15.60;99.90
22167;DHT22;11249;52.468;13.776;2023-04-28T10:17:26;15.70;99.90
22167;DHT22;11249;52.468;13.776;2023-04-28T10:19:55;15.80;99.90
22167;DHT22;11249;52.468;13.776;2023-04-28T10:25:34;16.00;99.90
22167;DHT22;11249;52.468;13.776;2023-04-28T10:28:06;16.00;99.90
22167;DHT22;11249;52.468;13.776;2023-04-28T10:30:34;16.30;99.90
22167;DHT22;11249;52.468;13.776;2023-04-28T10:38:13;16.50;99.90
22167;DHT22;11249;52.468;13.776;2023-04-28T10:40:45;16.70;99.90
22167;DHT22;11249;52.468;13.776;2023-04-28T10:43:13;16.90;99.90
22167;DHT22;11249;52.468;13.776;2023-04-28T10:58:46;17.90;99.90
22167;DHT22;11249;52.468;13.776;2023-04-28T11:06:31;17.80;99.90
22167;DHT22;11249;52.468;13.776;2023-04-28T11:09:01;17.80;99.90
22167;DHT22;11249;52.468;13.776;2023-04-28T11:11:30;18.00;99.90
22167;DHT22;11249;52.468;13.776;2023-04-28T11:16:49;18.00;99.90
22167;DHT22;11249;52.468;13.776;2023-04-28T11:19:21;17.90;99.90
22167;DHT22;11249;52.468;13.776;2023-04-28T11:21:51;18.00;99.90
22167;DHT22;11249;52.468;13.776;2023-04-28T11:24:18;17.90;99.90
22167;DHT22;11249;52.468;13.776;2023-04-28T11:26:45;18.20;99.90
22167;DHT22;11249;52.468;13.776;2023-04-28T11:29:13;18.50;99.90
22167;DHT22;11249;52.468;13.776;2023-04-28T11:31:48;18.80;99.90
22167;DHT22;11249;52.468;13.776;2023-04-28T11:34:20;19.10;99.90
22167;DHT22;11249;52.468;13.776;2023-04-28T11:36:50;19.30;99.90
22167;DHT22;11249;52.468;13.776;2023-04-28T11:39:31;19.20;99.90
22167;DHT22;11249;52.468;13.776;2023-04-28T11:42:00;19.00;99.90
22167;DHT22;11249;52.468;13.776;2023-04-28T11:44:29;18.90;99.90
22167;DHT22;11249;52.468;13.776;2023-04-28T11:46:58;19.00;99.90
22167;DHT22;11249;52.468;13.776;2023-04-28T11:49:30;19.10;99.90
22167;DHT22;11249;52.468;13.776;2023-04-28T11:52:06;18.90;99.90
22167;DHT22;11249;52.468;13.776;2023-04-28T11:54:34;19.00;99.90
22167;DHT22;11249;52.468;13.776;2023-04-28T11:57:01;18.60;99.90
22167;DHT22;11249;52.468;13.776;2023-04-28T11:59:32;18.70;99.90
22167;DHT22;11249;52.468;13.776;2023-04-28T12:02:01;18.60;99.90
22167;DHT22;11249;52.468;13.776;2023-04-28T12:04:41;18.80;99.90
22167;DHT22;11249;52.468;13.776;2023-04-28T12:07:13;18.80;99.90
22167;DHT22;11249;52.468;13.776;2023-04-28T12:09:45;19.00;99.90
22167;DHT22;11249;52.468;13.776;2023-04-28T12:12:14;18.90;99.90
22167;DHT22;11249;52.468;13.776;2023-04-28T12:15:13;18.90;99.90
22167;DHT22;11249;52.468;13.776;2023-04-28T12:17:41;19.20;99.90
22167;DHT22;11249;52.468;13.776;2023-04-28T12:20:32;19.40;99.90
22167;DHT22;11249;52.468;13.776;2023-04-28T12:22:58;19.50;99.90
22167;DHT22;11249;52.468;13.776;2023-04-28T12:25:25;19.60;99.90
22167;DHT22;11249;52.468;13.776;2023-04-28T12:28:02;19.60;99.90
22167;DHT22;11249;52.468;13.776;2023-04-28T12:30:31;19.60;99.90
22167;DHT22;11249;52.468;13.776;2023-04-28T12:32:58;19.70;99.90
22167;DHT22;11249;52.468;13.776;2023-04-28T12:35:26;19.60;99.90
22167;DHT22;11249;52.468;13.776;2023-04-28T12:37:54;19.40;99.90
22167;DHT22;11249;52.468;13.776;2023-04-28T12:40:22;19.50;99.90
22167;DHT22;11249;52.468;13.776;2023-04-28T12:42:50;19.60;99.90
22167;DHT22;11249;52.468;13.776;2023-04-28T12:45:17;19.70;99.90
22167;DHT22;11249;52.468;13.776;2023-04-28T12:47:44;19.60;99.90
22167;DHT22;11249;52.468;13.776;2023-04-28T12:50:11;19.80;99.90
22167;DHT22;11249;52.468;13.776;2023-04-28T12:52:37;20.00;99.90
22167;DHT22;11249;52.468;13.776;2023-04-28T12:55:05;20.00;99.90
22167;DHT22;11249;52.468;13.776;2023-04-28T12:57:31;20.20;99.90
22167;DHT22;11249;52.468;13.776;2023-04-28T12:59:58;20.30;99.90
22167;DHT22;11249;52.468;13.776;2023-04-28T13:02:25;20.20;99.90
22167;DHT22;11249;52.468;13.776;2023-04-28T13:04:52;20.10;99.90
22167;DHT22;11249;52.468;13.776;2023-04-28T13:07:19;19.90;99.90
22167;DHT22;11249;52.468;13.776;2023-04-28T13:09:46;20.00;99.90
22167;DHT22;11249;52.468;13.776;2023-04-28T13:12:13;19.90;99.90
22167;DHT22;11249;52.468;13.776;2023-04-28T13:14:41;19.90;99.90
22167;DHT22;11249;52.468;13.776;2023-04-28T13:17:07;19.90;99.90
22167;DHT22;11249;52.468;13.776;2023-04-28T13:19:35;19.80;99.90
22167;DHT22;11249;52.468;13.776;2023-04-28T13:22:03;19.50;99.90
22167;DHT22;11249;52.468;13.776;2023-04-28T13:24:33;19.40;99.90
22167;DHT22;11249;52.468;13.776;2023-04-28T13:27:00;19.30;99.90
22167;DHT22;11249;52.468;13.776;2023-04-28T13:29:28;19.20;99.90
22167;DHT22;11249;52.468;13.776;2023-04-28T13:31:55;19.10;99.90
22167;DHT22;11249;52.468;13.776;2023-04-28T13:34:22;18.90;99.90
22167;DHT22;11249;52.468;13.776;2023-04-28T13:36:48;18.70;99.90
22167;DHT22;11249;52.468;13.776;2023-04-28T13:39:16;18.70;99.90
22167;DHT22;11249;52.468;13.776;2023-04-28T13:41:45;18.70;99.90
22167;DHT22;11249;52.468;13.776;2023-04-28T13:44:12;18.60;99.90
22167;DHT22;11249;52.468;13.776;2023-04-28T13:46:39;18.60;99.90
22167;DHT22;11249;52.468;13.776;2023-04-28T13:49:06;18.60;99.90
22167;DHT22;11249;52.468;13.776;2023-04-28T13:51:33;18.60;99.90
22167;DHT22;11249;52.468;13.776;2023-04-28T13:54:00;18.50;99.90
22167;DHT22;11249;52.468;13.776;2023-04-28T13:56:30;18.30;99.90
22167;DHT22;11249;52.468;13.776;2023-04-28T13:58:57;18.10;99.90
22167;DHT22;11249;52.468;13.776;2023-04-28T14:01:24;18.00;99.90
22167;DHT22;11249;52.468;13.776;2023-04-28T14:03:51;17.90;99.90
22167;DHT22;11249;52.468;13.776;2023-04-28T14:06:18;18.00;99.90
22167;DHT22;11249;52.468;13.776;2023-04-28T14:08:45;18.10;99.90
22167;DHT22;11249;52.468;13.776;2023-04-28T14:11:12;18.20;99.90
22167;DHT22;11249;52.468;13.776;2023-04-28T14:13:38;18.10;99.90
22167;DHT22;11249;52.468;13.776;2023-04-28T14:16:05;18.10;99.90
22167;DHT22;11249;52.468;13.776;2023-04-28T14:18:32;18.20;99.90
22167;DHT22;11249;52.468;13.776;2023-04-28T14:20:59;18.10;99.90
22167;DHT22;11249;52.468;13.776;2023-04-28T14:23:28;18.00;99.90
22167;DHT22;11249;52.468;13.776;2023-04-28T14:25:55;18.00;99.90
22167;DHT22;11249;52.468;13.776;2023-04-28T14:28:23;17.90;99.90
22167;DHT22;11249;52.468;13.776;2023-04-28T14:33:18;17.70;99.90
22167;DHT22;11249;52.468;13.776;2023-04-28T14:35:44;17.70;99.90
22167;DHT22;11249;52.468;13.776;2023-04-28T14:38:12;17.60;99.90
22167;DHT22;11249;52.468;13.776;2023-04-28T14:40:39;17.60;99.90
22167;DHT22;11249;52.468;13.776;2023-04-28T14:43:06;17.60;99.90
22167;DHT22;11249;52.468;13.776;2023-04-28T14:45:34;17.60;99.90
22167;DHT22;11249;52.468;13.776;2023-04-28T14:48:02;17.70;99.90
22167;DHT22;11249;52.468;13.776;2023-04-28T14:50:29;17.70;99.90
22167;DHT22;11249;52.468;13.776;2023-04-28T14:52:56;17.60;99.90
22167;DHT22;11249;52.468;13.776;2023-04-28T14:55:25;17.60;99.90
22167;DHT22;11249;52.468;13.776;2023-04-28T14:57:52;17.50;99.90
22167;DHT22;11249;52.468;13.776;2023-04-28T15:00:18;17.20;99.90
22167;DHT22;11249;52.468;13.776;2023-04-28T15:02:45;17.20;99.90
22167;DHT22;11249;52.468;13.776;2023-04-28T15:05:12;17.10;99.90
22167;DHT22;11249;52.468;13.776;2023-04-28T15:07:39;17.10;99.90
22167;DHT22;11249;52.468;13.776;2023-04-28T15:10:06;17.10;99.90
22167;DHT22;11249;52.468;13.776;2023-04-28T15:12:33;16.90;99.90
22167;DHT22;11249;52.468;13.776;2023-04-28T15:15:00;16.80;99.90
22167;DHT22;11249;52.468;13.776;2023-04-28T15:17:27;16.80;99.90
22167;DHT22;11249;52.468;13.776;2023-04-28T15:19:54;16.70;99.90
22167;DHT22;11249;52.468;13.776;2023-04-28T15:22:21;16.60;99.90
22167;DHT22;11249;52.468;13.776;2023-04-28T15:24:48;16.60;99.90
22167;DHT22;11249;52.468;13.776;2023-04-28T15:27:15;16.60;99.90
22167;DHT22;11249;52.468;13.776;2023-04-28T15:29:41;16.60;99.90
22167;DHT22;11249;52.468;13.776;2023-04-28T15:32:08;16.60;99.90
22167;DHT22;11249;52.468;13.776;2023-04-28T15:34:35;16.60;99.90
22167;DHT22;11249;52.468;13.776;2023-04-28T15:37:06;16.60;99.90
22167;DHT22;11249;52.468;13.776;2023-04-28T15:39:51;16.60;99.90
22167;DHT22;11249;52.468;13.776;2023-04-28T15:42:17;16.50;99.90
22167;DHT22;11249;52.468;13.776;2023-04-28T15:44:44;16.60;99.90
22167;DHT22;11249;52.468;13.776;2023-04-28T15:47:10;16.50;99.90
22167;DHT22;11249;52.468;13.776;2023-04-28T15:49:37;16.50;99.90
22167;DHT22;11249;52.468;13.776;2023-04-28T15:52:05;16.50;99.90
22167;DHT22;11249;52.468;13.776;2023-04-28T15:54:32;16.40;99.90
22167;DHT22;11249;52.468;13.776;2023-04-28T15:56:58;16.30;99.90
22167;DHT22;11249;52.468;13.776;2023-04-28T15:59:25;16.20;99.90